createdAt,value
2023-03-20T00:04:27.309Z,10.63
2023-03-20T00:09:25.086Z,10.94
2023-03-20T00:14:24.199Z,10.85
2023-03-20T00:19:23.210Z,10.27
2023-03-20T00:24:23.849Z,10.45
2023-03-20T00:29:24.120Z,10.46
2023-03-20T00:34:28.411Z,10.30
2023-03-20T00:39:25.655Z,10.35
2023-03-20T00:44:25.730Z,10.03
2023-03-20T00:49:27.375Z,10.27
2023-03-20T00:54:25.622Z,10.23
2023-03-20T00:59:26.864Z,10.25
2023-03-20T01:04:24.225Z,10.03
2023-03-20T01:09:21.123Z,10.01
2023-03-20T01:14:18.103Z,10.19
2023-03-20T01:19:15.918Z,10.12
2023-03-20T01:24:12.890Z,9.65
2023-03-20T01:29:18.455Z,9.91
2023-03-20T01:34:16.228Z,9.92
2023-03-20T01:39:13.344Z,9.43
2023-03-20T01:44:19.375Z,9.71
2023-03-20T01:49:54.306Z,9.64
2023-03-20T01:54:52.222Z,9.45
2023-03-20T01:59:53.631Z,9.38
2023-03-20T02:04:56.295Z,9.32
2023-03-20T02:09:54.147Z,9.12
2023-03-20T02:15:01.055Z,9.43
2023-03-20T02:20:31.321Z,9.05
2023-03-20T02:26:06.112Z,9.22
2023-03-20T02:31:53.750Z,9.05
2023-03-20T02:37:26.963Z,8.92
2023-03-20T02:42:33.783Z,8.89
2023-03-20T02:47:41.698Z,8.32
2023-03-20T02:52:57.256Z,8.72
2023-03-20T02:57:59.525Z,8.38
2023-03-20T03:03:02.553Z,8.76
2023-03-20T03:08:02.857Z,8.88
2023-03-20T03:13:07.237Z,8.74
2023-03-20T03:18:08.605Z,8.81
2023-03-20T03:23:07.933Z,8.78
2023-03-20T03:28:11.723Z,8.50
2023-03-20T03:33:16.591Z,8.64
2023-03-20T03:38:26.989Z,8.29
2023-03-20T03:43:31.284Z,8.33
2023-03-20T03:48:32.504Z,8.50
2023-03-20T03:53:33.712Z,7.77
2023-03-20T03:58:36.092Z,7.84
2023-03-20T04:03:37.952Z,7.98
2023-03-20T04:08:39.802Z,8.04
2023-03-20T04:13:36.758Z,8.12
2023-03-20T04:18:36.979Z,8.43
2023-03-20T04:23:34.161Z,8.01
2023-03-20T04:28:32.353Z,7.67
2023-03-20T04:33:49.784Z,8.05
2023-03-20T04:39:17.812Z,7.88
2023-03-20T04:44:16.002Z,8.51
2023-03-20T04:49:15.835Z,8.42
2023-03-20T04:54:12.926Z,8.26
2023-03-20T04:59:10.362Z,8.66
2023-03-20T05:04:08.307Z,8.85
2023-03-20T05:09:05.761Z,9.02
2023-03-20T05:14:07.339Z,8.80
2023-03-20T05:19:23.731Z,9.10
2023-03-20T05:24:42.377Z,9.93
2023-03-20T05:30:15.322Z,11.02
2023-03-20T05:35:30.808Z,12.02
2023-03-20T05:40:41.199Z,13.03
2023-03-20T05:45:57.072Z,13.81
2023-03-20T05:51:15.103Z,15.08
2023-03-20T05:56:32.169Z,16.32
2023-03-20T06:01:49.412Z,16.88
2023-03-20T06:07:07.114Z,16.66
2023-03-20T06:12:05.427Z,16.22
2023-03-20T06:17:02.613Z,16.05
2023-03-20T06:22:00.615Z,15.70
2023-03-20T06:27:00.686Z,15.18
2023-03-20T06:31:58.538Z,14.72
2023-03-20T06:37:00.460Z,14.73
2023-03-20T06:41:59.545Z,14.53
2023-03-20T06:46:56.720Z,16.45
2023-03-20T06:51:53.762Z,18.10
2023-03-20T06:57:00.412Z,19.74
2023-03-20T07:02:03.443Z,20.64
2023-03-20T07:07:01.480Z,20.54
2023-03-20T07:11:59.522Z,20.56
2023-03-20T07:17:07.059Z,20.49
2023-03-20T07:22:07.706Z,20.52
2023-03-20T07:27:15.910Z,20.50
2023-03-20T07:32:14.034Z,20.08
2023-03-20T07:37:17.752Z,20.17
2023-03-20T07:42:26.485Z,19.68
2023-03-20T07:47:38.141Z,19.29
2023-03-20T07:52:35.372Z,19.13
2023-03-20T07:57:32.986Z,19.31
2023-03-20T08:02:30.342Z,19.16
2023-03-20T08:07:29.161Z,19.61
2023-03-20T08:12:25.990Z,20.03
2023-03-20T08:17:23.161Z,20.36
2023-03-20T08:22:21.107Z,21.48
2023-03-20T08:27:19.168Z,22.10
2023-03-20T08:32:16.122Z,22.71
2023-03-20T08:37:15.387Z,22.44
2023-03-20T08:42:12.290Z,23.11
2023-03-20T08:47:11.454Z,23.48
2023-03-20T08:52:08.486Z,24.86
2023-03-20T08:57:05.501Z,25.97
2023-03-20T09:02:02.411Z,26.92
2023-03-20T09:07:03.169Z,27.44
2023-03-20T09:12:00.392Z,27.97
2023-03-20T09:16:57.397Z,28.70
2023-03-20T09:21:54.166Z,29.14
2023-03-20T09:26:55.080Z,28.84
2023-03-20T09:31:53.986Z,28.81
2023-03-20T09:36:51.060Z,28.89
2023-03-20T09:41:57.018Z,28.81
2023-03-20T09:47:19.336Z,28.23
2023-03-20T09:52:23.926Z,28.03
2023-03-20T09:57:25.628Z,27.41
2023-03-20T10:02:34.933Z,26.83
2023-03-20T10:07:32.073Z,26.85
2023-03-20T10:12:47.176Z,26.60
2023-03-20T10:17:54.495Z,26.48
2023-03-20T10:22:55.749Z,26.70
2023-03-20T10:28:00.706Z,27.38
2023-03-20T10:33:12.388Z,27.49
2023-03-20T10:38:24.417Z,26.86
2023-03-20T10:43:23.435Z,26.92
2023-03-20T10:48:26.436Z,26.92
2023-03-20T10:53:34.767Z,26.92
2023-03-20T10:58:37.798Z,26.50
2023-03-20T11:03:38.992Z,25.94
2023-03-20T11:08:38.799Z,25.49
2023-03-20T11:13:40.962Z,24.88
2023-03-20T11:18:41.772Z,24.49
2023-03-20T11:23:38.841Z,24.29
2023-03-20T11:28:40.010Z,23.75
2023-03-20T11:33:39.832Z,23.87
2023-03-20T11:38:44.487Z,23.75
2023-03-20T11:43:41.437Z,23.64
2023-03-20T11:48:40.905Z,23.31
2023-03-20T11:53:43.382Z,23.58
2023-03-20T11:58:56.425Z,23.33
2023-03-20T12:04:02.818Z,23.47
2023-03-20T12:09:06.364Z,23.16
2023-03-20T12:14:08.185Z,23.58
2023-03-20T12:19:17.624Z,23.39
2023-03-20T12:24:24.382Z,22.70
2023-03-20T12:29:27.310Z,23.06
2023-03-20T12:34:29.265Z,22.07
2023-03-20T12:39:33.784Z,21.65
2023-03-20T12:44:41.564Z,21.50
2023-03-20T12:49:49.528Z,21.37
2023-03-20T12:55:08.625Z,21.56
2023-03-20T20:47:48.476Z,13.95
2023-03-20T20:52:45.521Z,14.27
2023-03-20T20:57:42.421Z,14.28
2023-03-20T21:02:39.966Z,13.96
2023-03-20T21:07:38.174Z,14.15
2023-03-20T21:12:48.527Z,14.08
2023-03-20T21:18:01.009Z,13.68
2023-03-20T21:23:02.321Z,14.37
2023-03-20T21:27:59.593Z,14.45
2023-03-20T21:32:56.713Z,14.09
2023-03-20T21:43:11.572Z,14.31
2023-03-20T21:54:26.025Z,14.04
2023-03-20T22:04:54.901Z,14.19
2023-03-20T22:25:53.136Z,14.33
2023-03-20T22:46:44.376Z,14.01
2023-03-20T22:51:43.932Z,13.75
2023-03-20T22:56:49.106Z,13.75
2023-03-20T23:01:46.717Z,13.58
2023-03-20T23:06:43.583Z,13.19
2023-03-20T23:11:42.189Z,12.96
2023-03-20T23:16:39.082Z,12.76
2023-03-20T23:21:37.261Z,12.59
2023-03-20T23:26:34.067Z,12.62
2023-03-20T23:31:30.997Z,12.81
2023-03-20T23:36:36.498Z,13.03
2023-03-20T23:46:52.496Z,13.32
2023-03-20T23:51:49.460Z,13.41
2023-03-20T23:56:47.534Z,13.43
